Airfield :







YOU CAN JOIN US ON...

 
LOGIN :

Register | Disclaimer

   EN    FR    IT 

 









Legend :    VFR   Marginal VFR   IFR   Intensive IFR   Very Intensive IFR
Visi :
Ceiling :
>= 8 km
>= 3000ft
5 to 8 km
1000 to 3000 ft
1500m to 5 km
500 to 1000 ft
800 to 1500m
200 to 500 ft
< 800m
< 200 ft
Symbols :   Thunderstorms  Fog  Heavy snow  Heavy precipitations  Wind > 20 kt






- Airport Elevation : 16 ft
- IATA code : FDF


TFFF - Aime Cesaire

CURRENT METAR :
  • 031730Z AUTO 13012KT 100V160 9999 BKN038 32/24 Q1016 NOSIG

EXPIRED METARs :
  • 031700Z AUTO 11010KT 080V150 9999 BKN041 BKN050 33/24 Q1016 NOSIG
  • 031630Z AUTO 10010KT 050V140 9999 SCT037 BKN045 32/25 Q1016 NOSIG
  • 031600Z AUTO 11012KT 070V160 9999 FEW001 BKN035 BKN042 32/24 Q1016 NOSIG
  • 031530Z AUTO 12011KT 9999 FEW032 SCT040 32/25 Q1017 NOSIG
  • 031500Z AUTO 12010KT 070V150 9999 SCT033 BKN043 32/25 Q1017 NOSIG

TAF TAF TFFF
Valid from the 03 at 18:00 until the 04 at 18:00 UTC


031600Z 0318/0418 11010KT 9999 SCT035
PROB30
TEMPO 0400/0412 4000 SHRA BKN018TCU
TEMPO 0400/0411 VRB02KT
TTZP FIR / North America



MET'MAP, your aeronautical weather chart ! - Copyright ORBIFLY December 2007 - Disclaimer

ORBIFLY MET'MAP TEAM :

Programming & Development : Alexandra Zaïnal
Concept & original design : Baudouin d'Aumeries
Assistance for programming : Marc-Olivier Méhu
Technical & hardware support : Manuel Goepfert

Contact : metmap@orbifly.com




SOURCES & CREDITS :

   NOAA